Terminal Aerodrome Forecast
Issued by NWS Newport/Morehead City, NC

Home | Current Version | Previous Version | Text Only | Print | Product List | Glossary Off
Versions: 1 2 3 4 5 6 7 8 9 10 11 12 13 14 15 16 17 18 19 20 21 22 23 24 25 26

000
FTUS42 KMHX 191957 AAA
TAFEWN
TAF AMD
KEWN 191957Z 1920/2018 12007KT P6SM VCSH SCT015 BKN060
      TEMPO 1920/1923 4SM SHRA BR BKN015
     FM200400 19007KT 4SM -SHRA BR OVC007
     FM201300 23006KT P6SM VCSH BKN015
     FM201500 24009KT P6SM SCT025=

USA.gov is the U.S. government's official web portal to all federal, state and local government web resources and services.